sensor_id;sensor_type;location;lat;lon;timestamp;pressure;altitude;pressure_sealevel;temperature;humidity
46015;BME280;36844;51.898;-0.874;2023-04-28T00:01:13;99640.44;;;18.40;
46015;BME280;36844;51.898;-0.874;2023-04-28T00:03:38;99643.59;;;18.38;
46015;BME280;36844;51.898;-0.874;2023-04-28T00:06:04;99643.22;;;18.36;
46015;BME280;36844;51.898;-0.874;2023-04-28T00:08:29;99646.38;;;18.35;
46015;BME280;36844;51.898;-0.874;2023-04-28T00:10:55;99637.91;;;18.33;
46015;BME280;36844;51.898;-0.874;2023-04-28T00:13:20;99635.22;;;18.33;
46015;BME280;36844;51.898;-0.874;2023-04-28T00:15:45;99637.59;;;18.31;
46015;BME280;36844;51.898;-0.874;2023-04-28T00:18:10;99633.38;;;18.30;
46015;BME280;36844;51.898;-0.874;2023-04-28T00:20:36;99627.66;;;18.28;
46015;BME280;36844;51.898;-0.874;2023-04-28T00:23:01;99634.22;;;18.27;
46015;BME280;36844;51.898;-0.874;2023-04-28T00:25:26;99621.91;;;18.26;
46015;BME280;36844;51.898;-0.874;2023-04-28T00:27:51;99627.72;;;18.24;
46015;BME280;36844;51.898;-0.874;2023-04-28T00:30:17;99628.13;;;18.23;
46015;BME280;36844;51.898;-0.874;2023-04-28T00:32:42;99626.19;;;18.23;
46015;BME280;36844;51.898;-0.874;2023-04-28T00:35:07;99625.81;;;18.21;
46015;BME280;36844;51.898;-0.874;2023-04-28T00:37:36;99620.88;;;18.20;
46015;BME280;36844;51.898;-0.874;2023-04-28T00:40:01;99623.97;;;18.18;
46015;BME280;36844;51.898;-0.874;2023-04-28T00:42:26;99623.22;;;18.18;
46015;BME280;36844;51.898;-0.874;2023-04-28T00:44:52;99615.56;;;18.16;
46015;BME280;36844;51.898;-0.874;2023-04-28T00:47:17;99612.13;;;18.16;
46015;BME280;36844;51.898;-0.874;2023-04-28T00:49:43;99596.34;;;18.14;
46015;BME280;36844;51.898;-0.874;2023-04-28T00:52:09;99605.63;;;18.13;
46015;BME280;36844;51.898;-0.874;2023-04-28T00:54:35;99598.72;;;18.12;
46015;BME280;36844;51.898;-0.874;2023-04-28T00:57:00;99602.56;;;18.11;
46015;BME280;36844;51.898;-0.874;2023-04-28T00:59:26;99597.59;;;18.10;
46015;BME280;36844;51.898;-0.874;2023-04-28T01:01:52;99595.34;;;18.08;
46015;BME280;36844;51.898;-0.874;2023-04-28T01:04:17;99596.50;;;18.07;
46015;BME280;36844;51.898;-0.874;2023-04-28T01:06:44;99593.03;;;18.07;
46015;BME280;36844;51.898;-0.874;2023-04-28T01:09:10;99588.06;;;18.05;
46015;BME280;36844;51.898;-0.874;2023-04-28T01:11:35;99591.19;;;18.04;
46015;BME280;36844;51.898;-0.874;2023-04-28T01:14:01;99593.09;;;18.03;
46015;BME280;36844;51.898;-0.874;2023-04-28T01:16:27;99592.34;;;18.03;
46015;BME280;36844;51.898;-0.874;2023-04-28T01:18:53;99594.28;;;18.02;
46015;BME280;36844;51.898;-0.874;2023-04-28T01:21:29;99596.66;;;18.00;
46015;BME280;36844;51.898;-0.874;2023-04-28T01:23:56;99595.09;;;17.99;
46015;BME280;36844;51.898;-0.874;2023-04-28T01:26:22;99591.69;;;17.99;
46015;BME280;36844;51.898;-0.874;2023-04-28T01:28:47;99592.09;;;17.97;
46015;BME280;36844;51.898;-0.874;2023-04-28T01:31:12;99592.84;;;17.98;
46015;BME280;36844;51.898;-0.874;2023-04-28T01:33:37;99589.78;;;17.96;
46015;BME280;36844;51.898;-0.874;2023-04-28T01:36:02;99594.03;;;17.97;
46015;BME280;36844;51.898;-0.874;2023-04-28T01:38:28;99585.59;;;17.95;
46015;BME280;36844;51.898;-0.874;2023-04-28T01:40:53;99586.75;;;17.94;
46015;BME280;36844;51.898;-0.874;2023-04-28T01:43:19;99587.94;;;17.93;
46015;BME280;36844;51.898;-0.874;2023-04-28T01:45:44;99587.94;;;17.93;
46015;BME280;36844;51.898;-0.874;2023-04-28T01:48:09;99584.91;;;17.91;
46015;BME280;36844;51.898;-0.874;2023-04-28T01:50:35;99592.97;;;17.91;
46015;BME280;36844;51.898;-0.874;2023-04-28T01:53:00;99592.22;;;17.90;
46015;BME280;36844;51.898;-0.874;2023-04-28T01:55:25;99584.56;;;17.89;
46015;BME280;36844;51.898;-0.874;2023-04-28T01:57:51;99581.88;;;17.89;
46015;BME280;36844;51.898;-0.874;2023-04-28T02:00:16;99576.91;;;17.87;
46015;BME280;36844;51.898;-0.874;2023-04-28T02:02:41;99580.00;;;17.86;
46015;BME280;36844;51.898;-0.874;2023-04-28T02:05:06;99582.72;;;17.86;
46015;BME280;36844;51.898;-0.874;2023-04-28T02:07:32;99584.63;;;17.85;
46015;BME280;36844;51.898;-0.874;2023-04-28T02:09:57;99581.16;;;17.85;
46015;BME280;36844;51.898;-0.874;2023-04-28T02:12:22;99588.50;;;17.84;
46015;BME280;36844;51.898;-0.874;2023-04-28T02:14:47;99572.75;;;17.83;
46015;BME280;36844;51.898;-0.874;2023-04-28T02:17:13;99573.94;;;17.82;
46015;BME280;36844;51.898;-0.874;2023-04-28T02:19:38;99573.94;;;17.82;
46015;BME280;36844;51.898;-0.874;2023-04-28T02:22:03;99581.25;;;17.81;
46015;BME280;36844;51.898;-0.874;2023-04-28T02:24:28;99575.50;;;17.79;
46015;BME280;36844;51.898;-0.874;2023-04-28T02:26:53;99585.13;;;17.80;
46015;BME280;36844;51.898;-0.874;2023-04-28T02:29:19;99585.50;;;17.78;
46015;BME280;36844;51.898;-0.874;2023-04-28T02:31:44;99579.38;;;17.78;
46015;BME280;36844;51.898;-0.874;2023-04-28T02:34:10;99583.66;;;17.75;
46015;BME280;36844;51.898;-0.874;2023-04-28T02:36:35;99590.97;;;17.75;
46015;BME280;36844;51.898;-0.874;2023-04-28T02:39:00;99592.91;;;17.74;
46015;BME280;36844;51.898;-0.874;2023-04-28T02:41:26;99584.81;;;17.74;
46015;BME280;36844;51.898;-0.874;2023-04-28T02:43:51;99581.81;;;17.72;
46015;BME280;36844;51.898;-0.874;2023-04-28T02:46:16;99579.13;;;17.72;
46015;BME280;36844;51.898;-0.874;2023-04-28T02:48:41;99579.50;;;17.71;
46015;BME280;36844;51.898;-0.874;2023-04-28T02:51:07;99578.78;;;17.70;
46015;BME280;36844;51.898;-0.874;2023-04-28T02:53:32;99582.66;;;17.69;
46015;BME280;36844;51.898;-0.874;2023-04-28T02:55:57;99589.53;;;17.70;
46015;BME280;36844;51.898;-0.874;2023-04-28T02:58:23;99587.25;;;17.69;
46015;BME280;36844;51.898;-0.874;2023-04-28T03:00:48;99589.19;;;17.68;
46015;BME280;36844;51.898;-0.874;2023-04-28T03:03:13;99584.97;;;17.67;
46015;BME280;36844;51.898;-0.874;2023-04-28T03:05:39;99588.06;;;17.66;
46015;BME280;36844;51.898;-0.874;2023-04-28T03:08:04;99588.06;;;17.66;
46015;BME280;36844;51.898;-0.874;2023-04-28T03:10:29;99581.94;;;17.65;
46015;BME280;36844;51.898;-0.874;2023-04-28T03:12:55;99585.81;;;17.64;
46015;BME280;36844;51.898;-0.874;2023-04-28T03:15:20;99592.72;;;17.65;
46015;BME280;36844;51.898;-0.874;2023-04-28T03:17:45;99582.34;;;17.64;
46015;BME280;36844;51.898;-0.874;2023-04-28T03:20:11;99584.25;;;17.63;
46015;BME280;36844;51.898;-0.874;2023-04-28T03:22:36;99585.44;;;17.62;
46015;BME280;36844;51.898;-0.874;2023-04-28T03:25:02;99583.94;;;17.61;
46015;BME280;36844;51.898;-0.874;2023-04-28T03:27:27;99582.03;;;17.62;
46015;BME280;36844;51.898;-0.874;2023-04-28T03:29:52;99577.38;;;17.62;
46015;BME280;36844;51.898;-0.874;2023-04-28T03:32:18;99581.25;;;17.61;
46015;BME280;36844;51.898;-0.874;2023-04-28T03:34:43;99585.88;;;17.61;
46015;BME280;36844;51.898;-0.874;2023-04-28T03:37:08;99595.88;;;17.60;
46015;BME280;36844;51.898;-0.874;2023-04-28T03:39:33;99591.66;;;17.59;
46015;BME280;36844;51.898;-0.874;2023-04-28T03:41:59;99590.16;;;17.58;
46015;BME280;36844;51.898;-0.874;2023-04-28T03:44:25;99585.94;;;17.57;
46015;BME280;36844;51.898;-0.874;2023-04-28T03:46:50;99591.31;;;17.57;
46015;BME280;36844;51.898;-0.874;2023-04-28T03:49:15;99597.47;;;17.58;
46015;BME280;36844;51.898;-0.874;2023-04-28T03:51:41;99592.47;;;17.56;
46015;BME280;36844;51.898;-0.874;2023-04-28T03:54:06;99589.78;;;17.56;
46015;BME280;36844;51.898;-0.874;2023-04-28T03:56:31;99593.63;;;17.55;
46015;BME280;36844;51.898;-0.874;2023-04-28T03:58:57;99589.03;;;17.56;
46015;BME280;36844;51.898;-0.874;2023-04-28T04:01:22;99592.16;;;17.54;
46015;BME280;36844;51.898;-0.874;2023-04-28T04:03:47;99592.16;;;17.54;
46015;BME280;36844;51.898;-0.874;2023-04-28T04:06:13;99591.41;;;17.54;
46015;BME280;36844;51.898;-0.874;2023-04-28T04:08:38;99593.31;;;17.53;
46015;BME280;36844;51.898;-0.874;2023-04-28T04:11:04;99601.41;;;17.53;
46015;BME280;36844;51.898;-0.874;2023-04-28T04:13:29;99600.63;;;17.53;
46015;BME280;36844;51.898;-0.874;2023-04-28T04:15:54;99599.84;;;17.52;
46015;BME280;36844;51.898;-0.874;2023-04-28T04:18:19;99603.72;;;17.51;
46015;BME280;36844;51.898;-0.874;2023-04-28T04:20:45;99606.41;;;17.51;
46015;BME280;36844;51.898;-0.874;2023-04-28T04:23:10;99613.75;;;17.51;
46015;BME280;36844;51.898;-0.874;2023-04-28T04:25:35;99610.31;;;17.50;
46015;BME280;36844;51.898;-0.874;2023-04-28T04:28:00;99624.16;;;17.49;
46015;BME280;36844;51.898;-0.874;2023-04-28T04:30:26;99623.38;;;17.48;
46015;BME280;36844;51.898;-0.874;2023-04-28T04:32:51;99624.16;;;17.49;
46015;BME280;36844;51.898;-0.874;2023-04-28T04:35:17;99618.78;;;17.49;
46015;BME280;36844;51.898;-0.874;2023-04-28T04:37:42;99617.22;;;17.48;
46015;BME280;36844;51.898;-0.874;2023-04-28T04:40:07;99616.53;;;17.47;
46015;BME280;36844;51.898;-0.874;2023-04-28T04:42:32;99621.91;;;17.47;
46015;BME280;36844;51.898;-0.874;2023-04-28T04:44:58;99616.53;;;17.47;
46015;BME280;36844;51.898;-0.874;2023-04-28T04:47:23;99615.00;;;17.46;
46015;BME280;36844;51.898;-0.874;2023-04-28T04:49:48;99613.44;;;17.45;
46015;BME280;36844;51.898;-0.874;2023-04-28T04:52:14;99630.75;;;17.44;
46015;BME280;36844;51.898;-0.874;2023-04-28T04:54:39;99632.28;;;17.45;
46015;BME280;36844;51.898;-0.874;2023-04-28T04:57:05;99631.97;;;17.43;
46015;BME280;36844;51.898;-0.874;2023-04-28T04:59:31;99635.38;;;17.44;
46015;BME280;36844;51.898;-0.874;2023-04-28T05:01:56;99642.75;;;17.43;
46015;BME280;36844;51.898;-0.874;2023-04-28T05:04:21;99640.03;;;17.43;
46015;BME280;36844;51.898;-0.874;2023-04-28T05:06:46;99641.97;;;17.43;
46015;BME280;36844;51.898;-0.874;2023-04-28T05:09:11;99637.75;;;17.42;
46015;BME280;36844;51.898;-0.874;2023-04-28T05:11:37;99637.75;;;17.42;
46015;BME280;36844;51.898;-0.874;2023-04-28T05:14:02;99640.81;;;17.40;
46015;BME280;36844;51.898;-0.874;2023-04-28T05:16:27;99647.75;;;17.41;
46015;BME280;36844;51.898;-0.874;2023-04-28T05:18:52;99646.19;;;17.40;
46015;BME280;36844;51.898;-0.874;2023-04-28T05:21:18;99654.28;;;17.40;
46015;BME280;36844;51.898;-0.874;2023-04-28T05:23:43;99656.22;;;17.40;
46015;BME280;36844;51.898;-0.874;2023-04-28T05:26:08;99657.41;;;17.39;
46015;BME280;36844;51.898;-0.874;2023-04-28T05:28:33;99657.41;;;17.39;
46015;BME280;36844;51.898;-0.874;2023-04-28T05:30:59;99663.94;;;17.38;
46015;BME280;36844;51.898;-0.874;2023-04-28T05:33:24;99658.56;;;17.38;
46015;BME280;36844;51.898;-0.874;2023-04-28T05:35:49;99663.19;;;17.37;
46015;BME280;36844;51.898;-0.874;2023-04-28T05:38:15;99670.50;;;17.37;
46015;BME280;36844;51.898;-0.874;2023-04-28T05:40:41;99665.09;;;17.37;
46015;BME280;36844;51.898;-0.874;2023-04-28T05:43:06;99664.34;;;17.36;
46015;BME280;36844;51.898;-0.874;2023-04-28T05:45:31;99658.94;;;17.36;
46015;BME280;36844;51.898;-0.874;2023-04-28T05:47:57;99661.66;;;17.36;
46015;BME280;36844;51.898;-0.874;2023-04-28T05:50:22;99660.94;;;17.36;
46015;BME280;36844;51.898;-0.874;2023-04-28T05:52:47;99668.56;;;17.37;
46015;BME280;36844;51.898;-0.874;2023-04-28T05:55:12;99668.19;;;17.39;
46015;BME280;36844;51.898;-0.874;2023-04-28T05:57:37;99670.09;;;17.38;
46015;BME280;36844;51.898;-0.874;2023-04-28T06:00:03;99675.06;;;17.40;
46015;BME280;36844;51.898;-0.874;2023-04-28T06:02:28;99675.41;;;17.42;
46015;BME280;36844;51.898;-0.874;2023-04-28T06:04:53;99670.38;;;17.44;
46015;BME280;36844;51.898;-0.874;2023-04-28T06:07:18;99678.44;;;17.47;
46015;BME280;36844;51.898;-0.874;2023-04-28T06:09:44;99677.59;;;17.50;
46015;BME280;36844;51.898;-0.874;2023-04-28T06:12:09;99676.78;;;17.53;
46015;BME280;36844;51.898;-0.874;2023-04-28T06:14:34;99675.94;;;17.56;
46015;BME280;36844;51.898;-0.874;2023-04-28T06:17:01;99681.25;;;17.60;
46015;BME280;36844;51.898;-0.874;2023-04-28T06:19:26;99686.19;;;17.65;
46015;BME280;36844;51.898;-0.874;2023-04-28T06:21:52;99678.81;;;17.69;
46015;BME280;36844;51.898;-0.874;2023-04-28T06:24:17;99691.03;;;17.73;
46015;BME280;36844;51.898;-0.874;2023-04-28T06:26:42;99685.16;;;17.78;
46015;BME280;36844;51.898;-0.874;2023-04-28T06:29:07;99689.31;;;17.83;
46015;BME280;36844;51.898;-0.874;2023-04-28T06:31:33;99694.66;;;17.87;
46015;BME280;36844;51.898;-0.874;2023-04-28T06:33:58;99696.53;;;17.90;
46015;BME280;36844;51.898;-0.874;2023-04-28T06:36:23;99701.84;;;17.93;
46015;BME280;36844;51.898;-0.874;2023-04-28T06:38:48;99704.06;;;17.98;
46015;BME280;36844;51.898;-0.874;2023-04-28T06:41:14;99705.19;;;18.01;
46015;BME280;36844;51.898;-0.874;2023-04-28T06:43:39;99700.47;;;18.05;
46015;BME280;36844;51.898;-0.874;2023-04-28T06:46:04;99707.38;;;18.06;
46015;BME280;36844;51.898;-0.874;2023-04-28T06:48:29;99709.28;;;18.09;
46015;BME280;36844;51.898;-0.874;2023-04-28T06:50:55;99718.44;;;18.11;
46015;BME280;36844;51.898;-0.874;2023-04-28T06:53:20;99714.91;;;18.14;
46015;BME280;36844;51.898;-0.874;2023-04-28T06:55:45;99719.91;;;18.16;
46015;BME280;36844;51.898;-0.874;2023-04-28T06:58:10;99728.31;;;18.18;
46015;BME280;36844;51.898;-0.874;2023-04-28T07:00:36;99737.94;;;18.19;
46015;BME280;36844;51.898;-0.874;2023-04-28T07:03:01;99727.47;;;18.21;
46015;BME280;36844;51.898;-0.874;2023-04-28T07:05:26;99728.25;;;18.21;
46015;BME280;36844;51.898;-0.874;2023-04-28T07:07:52;99737.09;;;18.22;
46015;BME280;36844;51.898;-0.874;2023-04-28T07:10:18;99735.94;;;18.23;
46015;BME280;36844;51.898;-0.874;2023-04-28T07:12:43;99729.38;;;18.24;
46015;BME280;36844;51.898;-0.874;2023-04-28T07:15:08;99734.00;;;18.23;
46015;BME280;36844;51.898;-0.874;2023-04-28T07:17:34;99741.66;;;18.25;
46015;BME280;36844;51.898;-0.874;2023-04-28T07:19:59;99738.94;;;18.25;
46015;BME280;36844;51.898;-0.874;2023-04-28T07:22:24;99747.81;;;18.25;
46015;BME280;36844;51.898;-0.874;2023-04-28T07:24:50;99747.81;;;18.25;
46015;BME280;36844;51.898;-0.874;2023-04-28T07:27:15;99757.44;;;18.26;
46015;BME280;36844;51.898;-0.874;2023-04-28T07:29:41;99760.13;;;18.26;
46015;BME280;36844;51.898;-0.874;2023-04-28T07:32:06;99753.97;;;18.26;
46015;BME280;36844;51.898;-0.874;2023-04-28T07:34:34;99753.97;;;18.26;
46015;BME280;36844;51.898;-0.874;2023-04-28T07:37:00;99757.44;;;18.26;
46015;BME280;36844;51.898;-0.874;2023-04-28T07:39:26;99759.34;;;18.26;
46015;BME280;36844;51.898;-0.874;2023-04-28T07:41:51;99762.81;;;18.26;
46015;BME280;36844;51.898;-0.874;2023-04-28T07:44:17;99772.44;;;18.27;
46015;BME280;36844;51.898;-0.874;2023-04-28T07:46:42;99781.28;;;18.28;
46015;BME280;36844;51.898;-0.874;2023-04-28T07:49:07;99773.22;;;18.28;
46015;BME280;36844;51.898;-0.874;2023-04-28T07:51:33;99779.31;;;18.28;
46015;BME280;36844;51.898;-0.874;2023-04-28T07:53:58;99779.31;;;18.28;
46015;BME280;36844;51.898;-0.874;2023-04-28T07:56:24;99783.53;;;18.29;
46015;BME280;36844;51.898;-0.874;2023-04-28T07:58:50;99788.16;;;18.29;
46015;BME280;36844;51.898;-0.874;2023-04-28T08:01:15;99793.56;;;18.29;
46015;BME280;36844;51.898;-0.874;2023-04-28T08:03:40;99790.88;;;18.29;
46015;BME280;36844;51.898;-0.874;2023-04-28T08:06:06;99794.31;;;18.29;
46015;BME280;36844;51.898;-0.874;2023-04-28T08:08:31;99796.25;;;18.29;
46015;BME280;36844;51.898;-0.874;2023-04-28T08:10:56;99801.66;;;18.29;
46015;BME280;36844;51.898;-0.874;2023-04-28T08:13:22;99793.56;;;18.29;
46015;BME280;36844;51.898;-0.874;2023-04-28T08:15:48;99799.72;;;18.29;
46015;BME280;36844;51.898;-0.874;2023-04-28T08:18:13;99801.66;;;18.29;
46015;BME280;36844;51.898;-0.874;2023-04-28T08:20:39;99806.28;;;18.28;
46015;BME280;36844;51.898;-0.874;2023-04-28T08:23:04;99802.88;;;18.28;
46015;BME280;36844;51.898;-0.874;2023-04-28T08:25:29;99810.19;;;18.27;
46015;BME280;36844;51.898;-0.874;2023-04-28T08:27:55;99805.56;;;18.28;
46015;BME280;36844;51.898;-0.874;2023-04-28T08:30:20;99810.19;;;18.27;
46015;BME280;36844;51.898;-0.874;2023-04-28T08:32:46;99814.03;;;18.26;
46015;BME280;36844;51.898;-0.874;2023-04-28T08:35:11;99818.66;;;18.26;
46015;BME280;36844;51.898;-0.874;2023-04-28T08:37:37;99818.66;;;18.26;
46015;BME280;36844;51.898;-0.874;2023-04-28T08:40:02;99821.34;;;18.26;
46015;BME280;36844;51.898;-0.874;2023-04-28T08:42:33;99825.19;;;18.25;
46015;BME280;36844;51.898;-0.874;2023-04-28T08:44:58;99821.03;;;18.24;
46015;BME280;36844;51.898;-0.874;2023-04-28T08:47:27;99824.47;;;18.24;
46015;BME280;36844;51.898;-0.874;2023-04-28T08:49:56;99826.41;;;18.24;
46015;BME280;36844;51.898;-0.874;2023-04-28T08:52:22;99832.97;;;18.23;
46015;BME280;36844;51.898;-0.874;2023-04-28T08:54:49;99827.56;;;18.23;
46015;BME280;36844;51.898;-0.874;2023-04-28T08:57:15;99841.06;;;18.23;
46015;BME280;36844;51.898;-0.874;2023-04-28T08:59:40;99838.75;;;18.21;
46015;BME280;36844;51.898;-0.874;2023-04-28T09:02:08;99840.66;;;18.21;
46015;BME280;36844;51.898;-0.874;2023-04-28T09:04:34;99855.69;;;18.22;
46015;BME280;36844;51.898;-0.874;2023-04-28T09:06:59;99848.03;;;18.20;
46015;BME280;36844;51.898;-0.874;2023-04-28T09:09:25;99860.75;;;18.20;
46015;BME280;36844;51.898;-0.874;2023-04-28T09:11:57;99852.66;;;18.20;
46015;BME280;36844;51.898;-0.874;2023-04-28T09:14:26;99857.66;;;18.18;
46015;BME280;36844;51.898;-0.874;2023-04-28T09:16:52;99861.13;;;18.18;
46015;BME280;36844;51.898;-0.874;2023-04-28T09:19:17;99863.84;;;18.18;
46015;BME280;36844;51.898;-0.874;2023-04-28T09:21:52;99864.59;;;18.19;
46015;BME280;36844;51.898;-0.874;2023-04-28T09:24:30;99860.38;;;18.18;
46015;BME280;36844;51.898;-0.874;2023-04-28T09:26:59;99866.22;;;18.16;
46015;BME280;36844;51.898;-0.874;2023-04-28T09:29:26;99869.63;;;18.17;
46015;BME280;36844;51.898;-0.874;2023-04-28T09:31:51;99874.28;;;18.16;
46015;BME280;36844;51.898;-0.874;2023-04-28T09:34:17;99873.84;;;18.18;
46015;BME280;36844;51.898;-0.874;2023-04-28T09:36:42;99876.53;;;18.18;
46015;BME280;36844;51.898;-0.874;2023-04-28T09:39:08;99880.41;;;18.17;
46015;BME280;36844;51.898;-0.874;2023-04-28T09:41:39;99883.13;;;18.17;
46015;BME280;36844;51.898;-0.874;2023-04-28T09:44:12;99883.13;;;18.17;
46015;BME280;36844;51.898;-0.874;2023-04-28T09:46:37;99888.50;;;18.17;
46015;BME280;36844;51.898;-0.874;2023-04-28T09:49:03;99884.63;;;18.18;
46015;BME280;36844;51.898;-0.874;2023-04-28T09:51:28;99885.81;;;18.17;
46015;BME280;36844;51.898;-0.874;2023-04-28T09:53:54;99886.53;;;18.17;
46015;BME280;36844;51.898;-0.874;2023-04-28T09:56:23;99896.59;;;18.17;
46015;BME280;36844;51.898;-0.874;2023-04-28T09:58:51;99898.09;;;18.18;
46015;BME280;36844;51.898;-0.874;2023-04-28T10:01:17;99901.97;;;18.17;
46015;BME280;36844;51.898;-0.874;2023-04-28T10:03:43;99913.50;;;18.17;
46015;BME280;36844;51.898;-0.874;2023-04-28T10:06:09;99906.19;;;18.18;
46015;BME280;36844;51.898;-0.874;2023-04-28T10:08:34;99910.06;;;18.17;
46015;BME280;36844;51.898;-0.874;2023-04-28T10:11:00;99923.53;;;18.17;
46015;BME280;36844;51.898;-0.874;2023-04-28T10:13:25;99921.59;;;18.17;
46015;BME280;36844;51.898;-0.874;2023-04-28T10:15:51;99920.84;;;18.17;
46015;BME280;36844;51.898;-0.874;2023-04-28T10:18:19;99925.81;;;18.18;
46015;BME280;36844;51.898;-0.874;2023-04-28T10:20:47;99917.41;;;18.16;
46015;BME280;36844;51.898;-0.874;2023-04-28T10:23:24;99916.97;;;18.18;
46015;BME280;36844;51.898;-0.874;2023-04-28T10:25:56;99919.66;;;18.18;
46015;BME280;36844;51.898;-0.874;2023-04-28T10:28:23;99926.97;;;18.17;
46015;BME280;36844;51.898;-0.874;2023-04-28T10:31:09;99933.13;;;18.18;
46015;BME280;36844;51.898;-0.874;2023-04-28T10:33:38;99940.44;;;18.17;
46015;BME280;36844;51.898;-0.874;2023-04-28T10:36:04;99945.47;;;18.19;
46015;BME280;36844;51.898;-0.874;2023-04-28T10:38:30;99942.00;;;18.18;
46015;BME280;36844;51.898;-0.874;2023-04-28T10:40:55;99941.59;;;18.20;
46015;BME280;36844;51.898;-0.874;2023-04-28T10:43:34;99944.31;;;18.20;
46015;BME280;36844;51.898;-0.874;2023-04-28T10:46:02;99955.09;;;18.20;
46015;BME280;36844;51.898;-0.874;2023-04-28T10:56:06;99968.13;;;18.21;
46015;BME280;36844;51.898;-0.874;2023-04-28T10:58:31;99974.28;;;18.22;
46015;BME280;36844;51.898;-0.874;2023-04-28T11:01:23;99977.75;;;18.22;
46015;BME280;36844;51.898;-0.874;2023-04-28T11:06:17;99983.91;;;18.23;
46015;BME280;36844;51.898;-0.874;2023-04-28T11:08:43;99996.63;;;18.22;
46015;BME280;36844;51.898;-0.874;2023-04-28T11:13:33;99989.28;;;18.23;
46015;BME280;36844;51.898;-0.874;2023-04-28T11:16:02;99994.69;;;18.23;
46015;BME280;36844;51.898;-0.874;2023-04-28T11:18:28;99992.31;;;18.25;
46015;BME280;36844;51.898;-0.874;2023-04-28T11:20:54;99989.63;;;18.25;
46015;BME280;36844;51.898;-0.874;2023-04-28T11:23:22;99995.41;;;18.27;
46015;BME280;36844;51.898;-0.874;2023-04-28T11:25:54;99993.03;;;18.29;
46015;BME280;36844;51.898;-0.874;2023-04-28T11:28:20;100011.91;;;18.29;
46015;BME280;36844;51.898;-0.874;2023-04-28T11:30:45;100009.59;;;18.31;
46015;BME280;36844;51.898;-0.874;2023-04-28T11:33:10;100018.00;;;18.33;
46015;BME280;36844;51.898;-0.874;2023-04-28T11:35:42;100018.41;;;18.35;
46015;BME280;36844;51.898;-0.874;2023-04-28T11:38:07;100017.94;;;18.36;
46015;BME280;36844;51.898;-0.874;2023-04-28T11:40:32;100019.09;;;18.39;
46015;BME280;36844;51.898;-0.874;2023-04-28T11:42:58;100021.38;;;18.40;
46015;BME280;36844;51.898;-0.874;2023-04-28T11:45:26;100025.59;;;18.41;
46015;BME280;36844;51.898;-0.874;2023-04-28T11:47:51;100027.06;;;18.46;
46015;BME280;36844;51.898;-0.874;2023-04-28T11:50:16;100029.34;;;18.47;
46015;BME280;36844;51.898;-0.874;2023-04-28T11:52:59;100026.63;;;18.51;
46015;BME280;36844;51.898;-0.874;2023-04-28T11:55:24;100041.63;;;18.52;
46015;BME280;36844;51.898;-0.874;2023-04-28T11:58:15;100041.56;;;18.55;
46015;BME280;36844;51.898;-0.874;2023-04-28T12:00:34;100045.38;;;18.58;
46015;BME280;36844;51.898;-0.874;2023-04-28T12:03:06;100042.69;;;18.58;
46015;BME280;36844;51.898;-0.874;2023-04-28T12:05:31;100042.63;;;18.61;
46015;BME280;36844;51.898;-0.874;2023-04-28T12:07:58;100046.88;;;18.62;
46015;BME280;36844;51.898;-0.874;2023-04-28T12:10:23;100049.88;;;18.64;
46015;BME280;36844;51.898;-0.874;2023-04-28T12:12:48;100052.19;;;18.66;
46015;BME280;36844;51.898;-0.874;2023-04-28T12:15:14;100049.84;;;18.68;
46015;BME280;36844;51.898;-0.874;2023-04-28T12:17:40;100051.38;;;18.69;
46015;BME280;36844;51.898;-0.874;2023-04-28T12:20:09;100042.13;;;18.70;
46015;BME280;36844;51.898;-0.874;2023-04-28T12:22:43;100042.44;;;18.72;
46015;BME280;36844;51.898;-0.874;2023-04-28T12:25:09;100051.31;;;18.72;
46015;BME280;36844;51.898;-0.874;2023-04-28T12:27:35;100060.50;;;18.75;
46015;BME280;36844;51.898;-0.874;2023-04-28T12:30:03;100065.50;;;18.77;
46015;BME280;36844;51.898;-0.874;2023-04-28T12:32:37;100066.28;;;18.77;
46015;BME280;36844;51.898;-0.874;2023-04-28T12:35:03;100075.88;;;18.78;
46015;BME280;36844;51.898;-0.874;2023-04-28T12:37:30;100073.94;;;18.78;
46015;BME280;36844;51.898;-0.874;2023-04-28T12:39:56;100077.00;;;18.81;
46015;BME280;36844;51.898;-0.874;2023-04-28T12:42:21;100072.38;;;18.81;
46015;BME280;36844;51.898;-0.874;2023-04-28T12:44:47;100078.53;;;18.82;
46015;BME280;36844;51.898;-0.874;2023-04-28T12:47:14;100084.66;;;18.82;
46015;BME280;36844;51.898;-0.874;2023-04-28T12:49:39;100089.69;;;18.84;
46015;BME280;36844;51.898;-0.874;2023-04-28T12:52:05;100092.38;;;18.84;
46015;BME280;36844;51.898;-0.874;2023-04-28T12:54:30;100093.53;;;18.83;
46015;BME280;36844;51.898;-0.874;2023-04-28T12:56:56;100088.13;;;18.83;
46015;BME280;36844;51.898;-0.874;2023-04-28T12:59:21;100090.44;;;18.84;
46015;BME280;36844;51.898;-0.874;2023-04-28T13:01:47;100093.16;;;18.84;
46015;BME280;36844;51.898;-0.874;2023-04-28T13:04:12;100088.91;;;18.83;
46015;BME280;36844;51.898;-0.874;2023-04-28T13:06:38;100093.88;;;18.85;
46015;BME280;36844;51.898;-0.874;2023-04-28T13:09:04;100093.16;;;18.84;
46015;BME280;36844;51.898;-0.874;2023-04-28T13:11:30;100104.69;;;18.85;
46015;BME280;36844;51.898;-0.874;2023-04-28T13:13:56;100108.16;;;18.85;
46015;BME280;36844;51.898;-0.874;2023-04-28T13:16:21;100108.16;;;18.85;
46015;BME280;36844;51.898;-0.874;2023-04-28T13:18:49;100105.88;;;18.84;
46015;BME280;36844;51.898;-0.874;2023-04-28T13:21:14;100118.94;;;18.85;
46015;BME280;36844;51.898;-0.874;2023-04-28T13:23:40;100112.03;;;18.84;
46015;BME280;36844;51.898;-0.874;2023-04-28T13:26:06;100125.53;;;18.84;
46015;BME280;36844;51.898;-0.874;2023-04-28T13:28:32;100113.19;;;18.83;
46015;BME280;36844;51.898;-0.874;2023-04-28T13:30:57;100121.28;;;18.83;
46015;BME280;36844;51.898;-0.874;2023-04-28T13:33:22;100122.81;;;18.84;
46015;BME280;36844;51.898;-0.874;2023-04-28T13:35:47;100115.88;;;18.83;
46015;BME280;36844;51.898;-0.874;2023-04-28T13:38:12;100133.63;;;18.84;
46015;BME280;36844;51.898;-0.874;2023-04-28T13:40:38;100127.84;;;18.82;
46015;BME280;36844;51.898;-0.874;2023-04-28T13:43:03;100127.84;;;18.82;
46015;BME280;36844;51.898;-0.874;2023-04-28T13:45:29;100126.34;;;18.81;
46015;BME280;36844;51.898;-0.874;2023-04-28T13:47:55;100135.94;;;18.82;